x

Middle Nomad (46004) Wave Buoy

2:00am - Wed 23rd Apr 2014 All times are PDT. -7 hours from GMT.

  • Sig Wave height 5.9ft
  • Peak Period 11s
  • Wind
    11mph, 13mph gusts
  • Sea Temp 46°f
  • Air Temp 46°f
  • Sea Pressure 1008.9mb
  • Middle Nomad
  • Middle Nomad

More Historic Weather Station data

Upgrade to MSW Pro to gain access to the past 30 days of data for over 8000 Wavebouys and Weather Stations around the globe.

Join Pro

Comparision Forecast

View Surf forecast
   
Wed 04/23 2:00am 6ft 11s 11 13 mph 1008.9mb 46f 46f
1:00am 6.5ft 11s 11 13 mph 1009.2mb 46f 46f
12:00am 7ft 10s 11 13 mph 1009.2mb 46f 46f
Tue 04/22 11:00pm 7ft 11s 11 13 mph 1009.3mb 46f 46f
10:00pm 7.5ft 11s 9 11 mph 1009.5mb 46f 46f
9:00pm 8ft 11s 11 13 mph 1009.1mb 46f 46f
8:00pm 9ft 11s 13 16 mph 1008.9mb 46f 46f
7:00pm 8.5ft 11s 13 16 mph 1009.2mb 46f 46f
6:00pm 9ft 11s 13 18 mph 1009.4mb 46f 47f
5:00pm 9ft 12s 13 18 mph 1009.1mb 46f 47f
4:00pm 9ft 12s 13 18 mph 1009.1mb 46f 47f
3:00pm 9ft 11s 16 20 mph 1009.1mb 46f 46f
2:00pm 9.5ft 12s 18 22 mph 1008.7mb 46f 46f
1:00pm 10ft 13s 16 20 mph 1008.5mb 46f 46f
12:00pm 10ft 12s 16 20 mph 1008.5mb 46f 46f
11:00am 10ft 12s 18 22 mph 1008mb 46f 46f
10:00am 10ft 12s 16 22 mph 1007.5mb 46f 46f
9:00am 11ft 13s 16 20 mph 1007.2mb 46f 46f
8:00am 11ft 13s 18 20 mph 1007.1mb 46f 45f
7:00am 10.5ft 13s 16 20 mph 1006.6mb 46f 46f
6:00am 11ft 13s 18 22 mph 1006.9mb 46f 44f
5:00am 12ft 12s 18 22 mph 1007mb 46f 44f
4:00am 11ft 13s 16 20 mph 1007.2mb 46f 44f
3:00am 10.5ft 13s 18 27 mph 1006.7mb 46f 46f
2:00am  -   -  20
mph
- - -
1:00am 11ft 13s 22 29 mph 1006.9mb 46f 46f
12:00am  -   -  22
mph
1007.2mb 46f 46f
Mon 04/21 11:00pm  -   -  20
mph
- - 46f
10:00pm 11ft 14s 22 27 mph 1007.5mb 46f 46f
9:00pm 11.5ft 13s 20 25 mph 1007.6mb 46f 46f
8:00pm 11.5ft 13s 20 25 mph 1007.7mb 46f 46f
7:00pm 12ft 14s 18 22 mph 1008.3mb 46f 46f
6:00pm 10.5ft 14s 18 25 mph 1008.7mb 46f 46f
5:00pm 11ft 13s 18 22 mph 1009.1mb 46f 47f
4:00pm 11ft 12s 18 22 mph 1009.8mb 46f 47f
3:00pm 12ft 12s 18 22 mph 1010.4mb 46f 46f
2:00pm 12ft 12s 18 22 mph 1010.6mb 46f 46f
1:00pm 11ft 12s 20 29 mph 1010.8mb 46f 45f
12:00pm 11.5ft 11s 18 22 mph 1011.1mb 46f 46f
11:00am 11ft 12s 13 20 mph 1011.2mb 46f 46f
10:00am 11.5ft 13s 16 20 mph 1011.1mb 46f 46f
9:00am 13ft 12s 13 18 mph 1011.3mb 46f 46f
8:00am 11ft 12s 18 25 mph 1011.2mb 46f 44f
7:00am 11ft 14s 13 18 mph 1011mb 46f 45f
6:00am 12ft 12s 13 16 mph 1011.1mb 46f 46f
5:00am 12.5ft 12s 13 16 mph 1011.3mb 46f 45f
4:00am 12.5ft 13s 13 18 mph 1011.3mb 46f 45f
3:00am 13.5ft 12s 16 20 mph 1011.3mb 46f 46f
2:00am 13ft 12s 9 13 mph 1011.5mb 46f 44f
1:00am 14ft 14s 18 22 mph 1010.9mb 46f 45f
12:00am 14ft 12s 16 18 mph 1010.5mb 46f 46f
Sun 04/20 11:00pm 15ft 13s 11 16 mph 1010.1mb 46f 44f
10:00pm 13ft 12s 16 20 mph 1009.3mb 46f 45f
9:00pm 14.5ft 12s 13 18 mph 1008.5mb 46f 45f
8:00pm 14.5ft 12s 13 18 mph 1007.6mb 46f 45f
7:00pm 14ft 13s 20 29 mph 1006.9mb 46f 46f
6:00pm 13ft 12s 18 22 mph 1006mb 46f 46f
5:00pm 13.5ft 11s 18 22 mph 1005.2mb 46f 47f
4:00pm 14ft 14s 20 25 mph 1004.2mb 46f 46f
1:00pm 16ft 12s 25 29 mph 1000.8mb 46f 43f
12:00pm 15ft 13s 29 38 mph 999mb 46f 42f
11:00am 14ft 14s 16 18 mph 997.8mb 46f 47f
10:00am 15.5ft 13s 16 20 mph 997.4mb 46f 46f
9:00am 15.5ft 12s 13 18 mph 997.1mb 46f 46f
8:00am 16ft 14s 22 31 mph 996.7mb 46f 47f
7:00am 16.5ft 14s 20 22 mph 996.2mb 46f 48f
6:00am 18.5ft 14s 22 27 mph 996.2mb 46f 47f
5:00am 21ft 14s 18 25 mph 996.5mb 46f 48f
4:00am 21ft 14s 20 27 mph 996.8mb 46f 47f
3:00am 20.5ft 14s 18 22 mph 997.4mb 46f 46f
2:00am 23.5ft 13s 20 29 mph 997.9mb 46f 47f
1:00am 21.5ft 14s 20 27 mph 999mb 46f 48f
12:00am 22.5ft 14s 18 22 mph 1000mb 46f 48f
Sat 04/19 11:00pm 23.5ft 15s 20 25 mph 1000mb 46f 48f
10:00pm 24.5ft 15s 20 27 mph 999.5mb 46f 48f
9:00pm 26.5ft 15s 22 31 mph 998.4mb 46f 47f
8:00pm  -   -  31
mph
996.8mb - 47f
7:00pm 31.5ft 15s 36 45 mph 995.3mb 46f 48f
6:00pm 33.5ft 16s 36 45 mph 994mb 46f 48f
5:00pm  -   -  36
mph
- - -
4:00pm 31ft 15s 36
mph
990.8mb 46f 47f
3:00pm 30.5ft 12s 38 54 mph 988.8mb 46f 47f
2:00pm 30ft 12s 40 51 mph 986.5mb 46f 47f
1:00pm 23.5ft 16s 38 49 mph 984.5mb 46f 47f
12:00pm 19.5ft 11s 38 49 mph 982.8mb 46f 47f
11:00am 19ft 12s 34 43 mph 981.4mb 46f 46f